sensor_id;sensor_type;location;lat;lon;timestamp;temperature;humidity
32394;DHT22;18853;45.426;9.206;2024-03-02T00:01:06;16.30;67.10
32394;DHT22;18853;45.426;9.206;2024-03-02T00:03:32;16.30;67.20
32394;DHT22;18853;45.426;9.206;2024-03-02T00:05:59;16.30;67.20
32394;DHT22;18853;45.426;9.206;2024-03-02T00:08:25;16.30;67.00
32394;DHT22;18853;45.426;9.206;2024-03-02T00:10:51;16.40;67.10
32394;DHT22;18853;45.426;9.206;2024-03-02T00:13:20;16.30;67.10
32394;DHT22;18853;45.426;9.206;2024-03-02T00:15:54;16.40;67.10
32394;DHT22;18853;45.426;9.206;2024-03-02T00:18:30;16.30;67.20
32394;DHT22;18853;45.426;9.206;2024-03-02T00:20:56;16.30;67.00
32394;DHT22;18853;45.426;9.206;2024-03-02T00:23:22;16.20;67.10
32394;DHT22;18853;45.426;9.206;2024-03-02T00:25:53;16.10;67.50
32394;DHT22;18853;45.426;9.206;2024-03-02T00:28:24;16.20;67.60
32394;DHT22;18853;45.426;9.206;2024-03-02T00:33:16;16.30;67.40
32394;DHT22;18853;45.426;9.206;2024-03-02T00:35:44;16.30;67.30
32394;DHT22;18853;45.426;9.206;2024-03-02T00:38:10;16.30;67.30
32394;DHT22;18853;45.426;9.206;2024-03-02T00:40:35;16.20;67.30
32394;DHT22;18853;45.426;9.206;2024-03-02T00:43:02;16.20;67.30
32394;DHT22;18853;45.426;9.206;2024-03-02T00:45:28;16.30;67.30
32394;DHT22;18853;45.426;9.206;2024-03-02T00:47:55;16.30;67.30
32394;DHT22;18853;45.426;9.206;2024-03-02T00:50:20;16.30;67.30
32394;DHT22;18853;45.426;9.206;2024-03-02T00:52:46;16.30;67.30
32394;DHT22;18853;45.426;9.206;2024-03-02T00:55:14;16.30;67.40
32394;DHT22;18853;45.426;9.206;2024-03-02T00:57:39;16.20;67.30
32394;DHT22;18853;45.426;9.206;2024-03-02T01:00:06;16.30;67.50
32394;DHT22;18853;45.426;9.206;2024-03-02T01:02:35;16.30;67.50
32394;DHT22;18853;45.426;9.206;2024-03-02T01:05:00;16.30;67.50
32394;DHT22;18853;45.426;9.206;2024-03-02T01:07:26;16.30;67.50
32394;DHT22;18853;45.426;9.206;2024-03-02T01:09:52;16.30;67.50
32394;DHT22;18853;45.426;9.206;2024-03-02T01:12:17;16.30;67.50
32394;DHT22;18853;45.426;9.206;2024-03-02T01:14:43;16.30;67.40
32394;DHT22;18853;45.426;9.206;2024-03-02T01:17:08;16.30;67.30
32394;DHT22;18853;45.426;9.206;2024-03-02T01:19:34;16.30;67.00
32394;DHT22;18853;45.426;9.206;2024-03-02T01:22:00;16.30;67.00
32394;DHT22;18853;45.426;9.206;2024-03-02T01:24:25;16.30;67.00
32394;DHT22;18853;45.426;9.206;2024-03-02T01:26:51;16.30;67.10
32394;DHT22;18853;45.426;9.206;2024-03-02T01:29:16;16.30;67.20
32394;DHT22;18853;45.426;9.206;2024-03-02T01:31:42;16.30;67.30
32394;DHT22;18853;45.426;9.206;2024-03-02T01:34:08;16.20;67.40
32394;DHT22;18853;45.426;9.206;2024-03-02T01:36:34;16.30;67.60
32394;DHT22;18853;45.426;9.206;2024-03-02T01:38:59;16.20;67.70
32394;DHT22;18853;45.426;9.206;2024-03-02T01:41:25;16.20;67.80
32394;DHT22;18853;45.426;9.206;2024-03-02T01:43:50;16.20;67.80
32394;DHT22;18853;45.426;9.206;2024-03-02T01:46:16;16.20;67.80
32394;DHT22;18853;45.426;9.206;2024-03-02T01:48:45;16.20;67.80
32394;DHT22;18853;45.426;9.206;2024-03-02T01:51:10;16.20;67.80
32394;DHT22;18853;45.426;9.206;2024-03-02T01:53:36;16.20;67.80
32394;DHT22;18853;45.426;9.206;2024-03-02T01:56:02;16.20;67.80
32394;DHT22;18853;45.426;9.206;2024-03-02T01:58:28;16.10;67.80
32394;DHT22;18853;45.426;9.206;2024-03-02T02:00:54;16.10;68.00
32394;DHT22;18853;45.426;9.206;2024-03-02T02:03:19;16.00;68.00
32394;DHT22;18853;45.426;9.206;2024-03-02T02:05:45;16.10;68.20
32394;DHT22;18853;45.426;9.206;2024-03-02T02:08:12;16.00;68.30
32394;DHT22;18853;45.426;9.206;2024-03-02T02:10:37;16.10;68.00
32394;DHT22;18853;45.426;9.206;2024-03-02T02:13:03;16.10;67.80
32394;DHT22;18853;45.426;9.206;2024-03-02T02:15:30;16.10;68.10
32394;DHT22;18853;45.426;9.206;2024-03-02T02:17:56;16.00;68.20
32394;DHT22;18853;45.426;9.206;2024-03-02T02:20:23;16.00;68.20
32394;DHT22;18853;45.426;9.206;2024-03-02T02:23:02;16.10;68.40
32394;DHT22;18853;45.426;9.206;2024-03-02T02:25:29;16.10;68.30
32394;DHT22;18853;45.426;9.206;2024-03-02T02:27:56;16.00;68.40
32394;DHT22;18853;45.426;9.206;2024-03-02T02:30:26;16.00;68.30
32394;DHT22;18853;45.426;9.206;2024-03-02T02:32:52;16.10;68.40
32394;DHT22;18853;45.426;9.206;2024-03-02T02:35:18;16.00;68.30
32394;DHT22;18853;45.426;9.206;2024-03-02T02:37:45;15.90;68.40
32394;DHT22;18853;45.426;9.206;2024-03-02T02:40:12;15.90;68.40
32394;DHT22;18853;45.426;9.206;2024-03-02T02:42:38;15.90;68.40
32394;DHT22;18853;45.426;9.206;2024-03-02T02:45:07;16.00;68.10
32394;DHT22;18853;45.426;9.206;2024-03-02T02:47:33;15.90;68.10
32394;DHT22;18853;45.426;9.206;2024-03-02T02:50:03;15.90;68.20
32394;DHT22;18853;45.426;9.206;2024-03-02T02:52:35;16.00;68.10
32394;DHT22;18853;45.426;9.206;2024-03-02T02:55:05;16.00;68.10
32394;DHT22;18853;45.426;9.206;2024-03-02T02:57:34;16.00;68.00
32394;DHT22;18853;45.426;9.206;2024-03-02T03:00:03;16.00;68.10
32394;DHT22;18853;45.426;9.206;2024-03-02T03:02:31;16.00;68.00
32394;DHT22;18853;45.426;9.206;2024-03-02T03:04:56;16.00;68.10
32394;DHT22;18853;45.426;9.206;2024-03-02T03:07:23;16.00;68.10
32394;DHT22;18853;45.426;9.206;2024-03-02T03:09:48;16.00;68.20
32394;DHT22;18853;45.426;9.206;2024-03-02T03:12:14;16.00;68.30
32394;DHT22;18853;45.426;9.206;2024-03-02T03:14:40;16.00;68.10
32394;DHT22;18853;45.426;9.206;2024-03-02T03:17:06;16.00;68.10
32394;DHT22;18853;45.426;9.206;2024-03-02T03:19:33;16.00;68.20
32394;DHT22;18853;45.426;9.206;2024-03-02T03:21:59;15.90;68.20
32394;DHT22;18853;45.426;9.206;2024-03-02T03:24:24;15.90;68.20
32394;DHT22;18853;45.426;9.206;2024-03-02T03:26:50;15.90;68.20
32394;DHT22;18853;45.426;9.206;2024-03-02T03:29:15;15.90;68.20
32394;DHT22;18853;45.426;9.206;2024-03-02T03:31:41;15.90;68.30
32394;DHT22;18853;45.426;9.206;2024-03-02T03:34:06;15.90;68.20
32394;DHT22;18853;45.426;9.206;2024-03-02T03:36:32;15.90;68.20
32394;DHT22;18853;45.426;9.206;2024-03-02T03:38:57;15.90;68.20
32394;DHT22;18853;45.426;9.206;2024-03-02T03:41:23;15.80;68.30
32394;DHT22;18853;45.426;9.206;2024-03-02T03:43:49;15.90;68.20
32394;DHT22;18853;45.426;9.206;2024-03-02T03:46:15;15.80;68.10
32394;DHT22;18853;45.426;9.206;2024-03-02T03:48:40;15.90;68.20
32394;DHT22;18853;45.426;9.206;2024-03-02T03:51:07;15.90;68.20
32394;DHT22;18853;45.426;9.206;2024-03-02T03:53:32;15.90;68.00
32394;DHT22;18853;45.426;9.206;2024-03-02T03:55:58;15.90;68.00
32394;DHT22;18853;45.426;9.206;2024-03-02T03:58:23;15.90;68.00
32394;DHT22;18853;45.426;9.206;2024-03-02T04:00:49;15.90;68.10
32394;DHT22;18853;45.426;9.206;2024-03-02T04:03:14;15.90;68.10
32394;DHT22;18853;45.426;9.206;2024-03-02T04:05:40;15.90;68.00
32394;DHT22;18853;45.426;9.206;2024-03-02T04:08:06;15.90;68.00
32394;DHT22;18853;45.426;9.206;2024-03-02T04:10:32;15.90;68.00
32394;DHT22;18853;45.426;9.206;2024-03-02T04:12:57;15.80;68.10
32394;DHT22;18853;45.426;9.206;2024-03-02T04:15:23;15.80;68.10
32394;DHT22;18853;45.426;9.206;2024-03-02T04:17:49;15.80;68.00
32394;DHT22;18853;45.426;9.206;2024-03-02T04:20:14;15.80;68.80
32394;DHT22;18853;45.426;9.206;2024-03-02T04:22:40;15.80;68.00
32394;DHT22;18853;45.426;9.206;2024-03-02T04:25:05;15.90;68.00
32394;DHT22;18853;45.426;9.206;2024-03-02T04:27:32;15.80;68.00
32394;DHT22;18853;45.426;9.206;2024-03-02T04:29:58;15.80;68.20
32394;DHT22;18853;45.426;9.206;2024-03-02T04:32:26;15.80;68.10
32394;DHT22;18853;45.426;9.206;2024-03-02T04:34:51;15.80;67.90
32394;DHT22;18853;45.426;9.206;2024-03-02T04:37:17;15.80;68.80
32394;DHT22;18853;45.426;9.206;2024-03-02T04:39:42;15.80;68.00
32394;DHT22;18853;45.426;9.206;2024-03-02T04:42:08;15.80;67.80
32394;DHT22;18853;45.426;9.206;2024-03-02T04:44:34;15.70;67.50
32394;DHT22;18853;45.426;9.206;2024-03-02T04:46:59;15.70;67.60
32394;DHT22;18853;45.426;9.206;2024-03-02T04:49:25;15.60;67.20
32394;DHT22;18853;45.426;9.206;2024-03-02T04:51:50;15.60;67.40
32394;DHT22;18853;45.426;9.206;2024-03-02T04:54:16;15.60;67.30
32394;DHT22;18853;45.426;9.206;2024-03-02T04:56:42;15.60;67.30
32394;DHT22;18853;45.426;9.206;2024-03-02T04:59:15;15.60;67.20
32394;DHT22;18853;45.426;9.206;2024-03-02T05:01:41;15.60;67.30
32394;DHT22;18853;45.426;9.206;2024-03-02T05:04:06;15.60;67.30
32394;DHT22;18853;45.426;9.206;2024-03-02T05:06:32;15.50;67.20
32394;DHT22;18853;45.426;9.206;2024-03-02T05:08:57;15.60;67.10
32394;DHT22;18853;45.426;9.206;2024-03-02T05:11:23;15.50;67.20
32394;DHT22;18853;45.426;9.206;2024-03-02T05:14:11;15.60;67.20
32394;DHT22;18853;45.426;9.206;2024-03-02T05:16:37;15.50;67.70
32394;DHT22;18853;45.426;9.206;2024-03-02T05:19:04;15.60;67.00
32394;DHT22;18853;45.426;9.206;2024-03-02T05:21:32;15.60;66.90
32394;DHT22;18853;45.426;9.206;2024-03-02T05:23:57;15.60;66.80
32394;DHT22;18853;45.426;9.206;2024-03-02T05:26:23;15.60;66.80
32394;DHT22;18853;45.426;9.206;2024-03-02T05:28:48;15.60;67.10
32394;DHT22;18853;45.426;9.206;2024-03-02T05:31:17;15.50;67.00
32394;DHT22;18853;45.426;9.206;2024-03-02T05:33:43;15.60;67.10
32394;DHT22;18853;45.426;9.206;2024-03-02T05:36:09;15.60;67.00
32394;DHT22;18853;45.426;9.206;2024-03-02T05:38:35;15.60;66.80
32394;DHT22;18853;45.426;9.206;2024-03-02T05:41:00;15.60;66.70
32394;DHT22;18853;45.426;9.206;2024-03-02T05:43:26;15.60;66.70
32394;DHT22;18853;45.426;9.206;2024-03-02T05:45:52;15.60;66.70
32394;DHT22;18853;45.426;9.206;2024-03-02T05:48:17;15.60;66.80
32394;DHT22;18853;45.426;9.206;2024-03-02T05:50:43;15.60;66.80
32394;DHT22;18853;45.426;9.206;2024-03-02T05:53:08;15.60;66.60
32394;DHT22;18853;45.426;9.206;2024-03-02T05:55:34;15.60;66.60
32394;DHT22;18853;45.426;9.206;2024-03-02T05:58:00;15.50;67.40
32394;DHT22;18853;45.426;9.206;2024-03-02T06:00:28;15.50;66.80
32394;DHT22;18853;45.426;9.206;2024-03-02T06:02:54;15.50;66.80
32394;DHT22;18853;45.426;9.206;2024-03-02T06:05:20;15.60;66.80
32394;DHT22;18853;45.426;9.206;2024-03-02T06:07:45;15.50;66.60
32394;DHT22;18853;45.426;9.206;2024-03-02T06:10:11;15.50;66.70
32394;DHT22;18853;45.426;9.206;2024-03-02T06:12:36;15.50;66.80
32394;DHT22;18853;45.426;9.206;2024-03-02T06:15:02;15.50;66.70
32394;DHT22;18853;45.426;9.206;2024-03-02T06:17:29;15.50;66.60
32394;DHT22;18853;45.426;9.206;2024-03-02T06:19:55;15.60;66.60
32394;DHT22;18853;45.426;9.206;2024-03-02T06:22:20;15.60;66.50
32394;DHT22;18853;45.426;9.206;2024-03-02T06:24:48;15.50;66.50
32394;DHT22;18853;45.426;9.206;2024-03-02T06:27:14;15.50;66.60
32394;DHT22;18853;45.426;9.206;2024-03-02T06:29:40;15.50;66.70
32394;DHT22;18853;45.426;9.206;2024-03-02T06:32:05;15.50;66.60
32394;DHT22;18853;45.426;9.206;2024-03-02T06:34:31;15.50;66.60
32394;DHT22;18853;45.426;9.206;2024-03-02T06:36:56;15.50;66.60
32394;DHT22;18853;45.426;9.206;2024-03-02T06:39:22;15.50;66.70
32394;DHT22;18853;45.426;9.206;2024-03-02T06:41:48;15.50;66.70
32394;DHT22;18853;45.426;9.206;2024-03-02T06:44:13;15.50;66.40
32394;DHT22;18853;45.426;9.206;2024-03-02T06:46:39;15.50;66.50
32394;DHT22;18853;45.426;9.206;2024-03-02T06:49:04;15.50;66.50
32394;DHT22;18853;45.426;9.206;2024-03-02T06:51:30;15.50;66.50
32394;DHT22;18853;45.426;9.206;2024-03-02T06:53:56;15.50;66.60
32394;DHT22;18853;45.426;9.206;2024-03-02T06:56:24;15.50;66.50
32394;DHT22;18853;45.426;9.206;2024-03-02T06:58:50;15.50;66.50
32394;DHT22;18853;45.426;9.206;2024-03-02T07:01:15;15.50;66.40
32394;DHT22;18853;45.426;9.206;2024-03-02T07:03:41;15.50;66.50
32394;DHT22;18853;45.426;9.206;2024-03-02T07:06:06;15.40;66.50
32394;DHT22;18853;45.426;9.206;2024-03-02T07:08:32;15.40;66.50
32394;DHT22;18853;45.426;9.206;2024-03-02T07:10:57;15.40;66.90
32394;DHT22;18853;45.426;9.206;2024-03-02T07:13:23;15.50;66.80
32394;DHT22;18853;45.426;9.206;2024-03-02T07:15:48;15.40;66.80
32394;DHT22;18853;45.426;9.206;2024-03-02T07:18:30;15.40;66.90
32394;DHT22;18853;45.426;9.206;2024-03-02T07:20:56;15.40;67.10
32394;DHT22;18853;45.426;9.206;2024-03-02T07:23:24;15.40;67.20
32394;DHT22;18853;45.426;9.206;2024-03-02T07:25:52;15.40;67.30
32394;DHT22;18853;45.426;9.206;2024-03-02T07:28:20;15.40;67.40
32394;DHT22;18853;45.426;9.206;2024-03-02T07:30:46;15.50;67.40
32394;DHT22;18853;45.426;9.206;2024-03-02T07:33:11;15.50;67.20
32394;DHT22;18853;45.426;9.206;2024-03-02T07:35:37;15.50;67.20
32394;DHT22;18853;45.426;9.206;2024-03-02T07:38:03;15.50;67.00
32394;DHT22;18853;45.426;9.206;2024-03-02T07:40:29;15.60;67.10
32394;DHT22;18853;45.426;9.206;2024-03-02T07:42:56;15.60;66.90
32394;DHT22;18853;45.426;9.206;2024-03-02T07:45:22;15.50;67.00
32394;DHT22;18853;45.426;9.206;2024-03-02T07:47:47;15.50;66.90
32394;DHT22;18853;45.426;9.206;2024-03-02T07:50:13;15.40;67.00
32394;DHT22;18853;45.426;9.206;2024-03-02T07:52:39;15.40;67.20
32394;DHT22;18853;45.426;9.206;2024-03-02T07:55:04;15.30;67.30
32394;DHT22;18853;45.426;9.206;2024-03-02T07:57:30;15.30;67.50
32394;DHT22;18853;45.426;9.206;2024-03-02T07:59:56;15.30;67.50
32394;DHT22;18853;45.426;9.206;2024-03-02T08:02:22;15.30;67.40
32394;DHT22;18853;45.426;9.206;2024-03-02T08:04:47;15.30;67.40
32394;DHT22;18853;45.426;9.206;2024-03-02T08:07:13;15.40;67.50
32394;DHT22;18853;45.426;9.206;2024-03-02T08:09:39;15.40;67.50
32394;DHT22;18853;45.426;9.206;2024-03-02T08:12:04;15.30;67.60
32394;DHT22;18853;45.426;9.206;2024-03-02T08:14:30;15.40;67.70
32394;DHT22;18853;45.426;9.206;2024-03-02T08:16:56;15.30;67.40
32394;DHT22;18853;45.426;9.206;2024-03-02T08:19:22;15.40;67.60
32394;DHT22;18853;45.426;9.206;2024-03-02T08:21:48;15.40;67.60
32394;DHT22;18853;45.426;9.206;2024-03-02T08:24:14;15.40;67.80
32394;DHT22;18853;45.426;9.206;2024-03-02T08:26:40;15.40;67.80
32394;DHT22;18853;45.426;9.206;2024-03-02T08:29:05;15.50;67.50
32394;DHT22;18853;45.426;9.206;2024-03-02T08:31:31;15.50;67.50
32394;DHT22;18853;45.426;9.206;2024-03-02T08:33:56;15.40;67.50
32394;DHT22;18853;45.426;9.206;2024-03-02T08:36:23;15.40;67.90
32394;DHT22;18853;45.426;9.206;2024-03-02T08:38:52;15.50;67.90
32394;DHT22;18853;45.426;9.206;2024-03-02T08:41:17;15.50;67.70
32394;DHT22;18853;45.426;9.206;2024-03-02T08:43:44;15.50;67.60
32394;DHT22;18853;45.426;9.206;2024-03-02T08:46:10;15.50;67.40
32394;DHT22;18853;45.426;9.206;2024-03-02T08:48:35;15.60;67.50
32394;DHT22;18853;45.426;9.206;2024-03-02T08:51:01;15.60;67.30
32394;DHT22;18853;45.426;9.206;2024-03-02T08:53:30;15.60;67.40
32394;DHT22;18853;45.426;9.206;2024-03-02T08:55:55;15.50;67.50
32394;DHT22;18853;45.426;9.206;2024-03-02T08:58:21;15.60;67.60
32394;DHT22;18853;45.426;9.206;2024-03-02T09:00:47;15.60;67.70
32394;DHT22;18853;45.426;9.206;2024-03-02T09:03:13;15.60;67.70
32394;DHT22;18853;45.426;9.206;2024-03-02T09:05:38;15.60;67.40
32394;DHT22;18853;45.426;9.206;2024-03-02T09:08:04;15.50;67.30
32394;DHT22;18853;45.426;9.206;2024-03-02T09:10:30;15.50;67.80
32394;DHT22;18853;45.426;9.206;2024-03-02T09:12:55;15.50;68.10
32394;DHT22;18853;45.426;9.206;2024-03-02T09:15:21;15.50;68.00
32394;DHT22;18853;45.426;9.206;2024-03-02T09:17:47;15.50;67.80
32394;DHT22;18853;45.426;9.206;2024-03-02T09:20:12;15.60;67.90
32394;DHT22;18853;45.426;9.206;2024-03-02T09:22:39;15.60;67.90
32394;DHT22;18853;45.426;9.206;2024-03-02T09:25:05;15.70;68.20
32394;DHT22;18853;45.426;9.206;2024-03-02T09:27:36;15.70;68.40
32394;DHT22;18853;45.426;9.206;2024-03-02T09:30:02;15.60;68.60
32394;DHT22;18853;45.426;9.206;2024-03-02T09:32:28;15.70;68.70
32394;DHT22;18853;45.426;9.206;2024-03-02T09:34:53;15.70;68.70
32394;DHT22;18853;45.426;9.206;2024-03-02T09:37:21;15.70;68.80
32394;DHT22;18853;45.426;9.206;2024-03-02T09:39:46;15.70;69.00
32394;DHT22;18853;45.426;9.206;2024-03-02T09:42:13;15.80;68.90
32394;DHT22;18853;45.426;9.206;2024-03-02T09:44:39;15.80;68.60
32394;DHT22;18853;45.426;9.206;2024-03-02T09:47:06;15.90;68.40
32394;DHT22;18853;45.426;9.206;2024-03-02T09:49:32;15.80;68.40
32394;DHT22;18853;45.426;9.206;2024-03-02T09:51:57;15.80;68.50
32394;DHT22;18853;45.426;9.206;2024-03-02T09:54:23;15.80;68.40
32394;DHT22;18853;45.426;9.206;2024-03-02T09:56:50;15.80;69.10
32394;DHT22;18853;45.426;9.206;2024-03-02T09:59:16;15.80;68.40
32394;DHT22;18853;45.426;9.206;2024-03-02T10:02:00;15.80;68.60
32394;DHT22;18853;45.426;9.206;2024-03-02T10:04:27;15.80;68.60
32394;DHT22;18853;45.426;9.206;2024-03-02T10:07:16;15.90;68.70
32394;DHT22;18853;45.426;9.206;2024-03-02T10:09:44;16.00;67.50
32394;DHT22;18853;45.426;9.206;2024-03-02T10:12:11;16.00;67.50
32394;DHT22;18853;45.426;9.206;2024-03-02T10:14:38;16.00;67.40
32394;DHT22;18853;45.426;9.206;2024-03-02T10:17:08;16.00;67.20
32394;DHT22;18853;45.426;9.206;2024-03-02T10:19:34;16.00;67.20
32394;DHT22;18853;45.426;9.206;2024-03-02T10:22:04;16.00;67.20
32394;DHT22;18853;45.426;9.206;2024-03-02T10:27:07;16.00;66.50
32394;DHT22;18853;45.426;9.206;2024-03-02T10:29:39;15.90;66.60
32394;DHT22;18853;45.426;9.206;2024-03-02T10:32:07;15.90;66.60
32394;DHT22;18853;45.426;9.206;2024-03-02T10:34:34;15.90;66.80
32394;DHT22;18853;45.426;9.206;2024-03-02T10:37:01;15.90;66.60
32394;DHT22;18853;45.426;9.206;2024-03-02T10:39:27;15.90;66.70
32394;DHT22;18853;45.426;9.206;2024-03-02T10:41:53;15.80;67.00
32394;DHT22;18853;45.426;9.206;2024-03-02T10:44:20;15.80;67.30
32394;DHT22;18853;45.426;9.206;2024-03-02T10:46:47;15.80;67.50
32394;DHT22;18853;45.426;9.206;2024-03-02T10:49:14;15.70;67.60
32394;DHT22;18853;45.426;9.206;2024-03-02T10:51:40;15.70;67.80
32394;DHT22;18853;45.426;9.206;2024-03-02T10:54:06;15.70;68.00
32394;DHT22;18853;45.426;9.206;2024-03-02T10:56:41;15.70;68.10
32394;DHT22;18853;45.426;9.206;2024-03-02T11:01:55;15.70;68.30
32394;DHT22;18853;45.426;9.206;2024-03-02T11:04:21;15.60;68.40
32394;DHT22;18853;45.426;9.206;2024-03-02T11:06:50;15.70;68.10
32394;DHT22;18853;45.426;9.206;2024-03-02T11:09:19;15.70;68.00
32394;DHT22;18853;45.426;9.206;2024-03-02T11:11:48;15.70;68.00
32394;DHT22;18853;45.426;9.206;2024-03-02T11:14:17;15.80;68.00
32394;DHT22;18853;45.426;9.206;2024-03-02T11:16:47;15.90;67.80
32394;DHT22;18853;45.426;9.206;2024-03-02T11:19:14;15.90;67.70
32394;DHT22;18853;45.426;9.206;2024-03-02T11:21:40;16.00;67.80
32394;DHT22;18853;45.426;9.206;2024-03-02T11:26:49;16.00;67.80
32394;DHT22;18853;45.426;9.206;2024-03-02T11:32:01;16.00;68.40
32394;DHT22;18853;45.426;9.206;2024-03-02T11:34:34;16.00;67.80
32394;DHT22;18853;45.426;9.206;2024-03-02T11:37:03;16.00;67.30
32394;DHT22;18853;45.426;9.206;2024-03-02T11:39:29;16.00;67.40
32394;DHT22;18853;45.426;9.206;2024-03-02T11:41:56;16.00;67.30
32394;DHT22;18853;45.426;9.206;2024-03-02T11:44:24;16.10;67.10
32394;DHT22;18853;45.426;9.206;2024-03-02T11:46:59;16.10;67.00
32394;DHT22;18853;45.426;9.206;2024-03-02T11:49:50;16.20;66.80
32394;DHT22;18853;45.426;9.206;2024-03-02T11:52:17;16.20;66.50
32394;DHT22;18853;45.426;9.206;2024-03-02T11:54:44;16.10;66.70
32394;DHT22;18853;45.426;9.206;2024-03-02T11:57:23;16.20;66.50
32394;DHT22;18853;45.426;9.206;2024-03-02T11:59:49;16.20;66.30
32394;DHT22;18853;45.426;9.206;2024-03-02T12:02:17;16.20;66.20
32394;DHT22;18853;45.426;9.206;2024-03-02T12:04:43;16.20;65.90
32394;DHT22;18853;45.426;9.206;2024-03-02T12:07:10;16.20;66.00
32394;DHT22;18853;45.426;9.206;2024-03-02T12:09:36;16.10;66.00
32394;DHT22;18853;45.426;9.206;2024-03-02T12:12:09;16.10;66.10
32394;DHT22;18853;45.426;9.206;2024-03-02T12:14:38;16.10;66.10
32394;DHT22;18853;45.426;9.206;2024-03-02T12:17:06;16.10;65.90
32394;DHT22;18853;45.426;9.206;2024-03-02T12:19:33;16.30;65.70
32394;DHT22;18853;45.426;9.206;2024-03-02T12:21:59;16.20;65.80
32394;DHT22;18853;45.426;9.206;2024-03-02T12:24:29;16.20;65.80
32394;DHT22;18853;45.426;9.206;2024-03-02T12:26:55;16.30;65.60
32394;DHT22;18853;45.426;9.206;2024-03-02T12:29:22;16.30;65.50
32394;DHT22;18853;45.426;9.206;2024-03-02T12:31:48;16.20;65.50
32394;DHT22;18853;45.426;9.206;2024-03-02T12:34:15;16.20;65.50
32394;DHT22;18853;45.426;9.206;2024-03-02T12:36:41;16.30;65.70
32394;DHT22;18853;45.426;9.206;2024-03-02T12:39:10;16.40;65.40
32394;DHT22;18853;45.426;9.206;2024-03-02T12:41:36;16.50;64.70
32394;DHT22;18853;45.426;9.206;2024-03-02T12:44:03;16.50;64.80
32394;DHT22;18853;45.426;9.206;2024-03-02T12:46:29;16.60;64.70
32394;DHT22;18853;45.426;9.206;2024-03-02T12:48:54;16.60;64.70
32394;DHT22;18853;45.426;9.206;2024-03-02T12:51:20;16.50;64.70
32394;DHT22;18853;45.426;9.206;2024-03-02T12:53:53;16.60;64.90
32394;DHT22;18853;45.426;9.206;2024-03-02T12:56:19;16.60;64.60
32394;DHT22;18853;45.426;9.206;2024-03-02T12:58:44;16.50;65.00
32394;DHT22;18853;45.426;9.206;2024-03-02T13:01:10;16.50;65.30
32394;DHT22;18853;45.426;9.206;2024-03-02T13:03:39;16.40;65.70
32394;DHT22;18853;45.426;9.206;2024-03-02T13:06:06;16.40;66.10
32394;DHT22;18853;45.426;9.206;2024-03-02T13:08:32;16.40;66.40
32394;DHT22;18853;45.426;9.206;2024-03-02T13:10:58;16.40;66.50
32394;DHT22;18853;45.426;9.206;2024-03-02T13:13:23;16.40;66.70
32394;DHT22;18853;45.426;9.206;2024-03-02T13:15:49;16.40;66.70
32394;DHT22;18853;45.426;9.206;2024-03-02T13:18:14;16.40;66.60
32394;DHT22;18853;45.426;9.206;2024-03-02T13:20:42;16.40;66.40
32394;DHT22;18853;45.426;9.206;2024-03-02T13:23:08;16.40;66.50
32394;DHT22;18853;45.426;9.206;2024-03-02T13:25:33;16.40;66.60
32394;DHT22;18853;45.426;9.206;2024-03-02T13:27:59;16.40;66.90
32394;DHT22;18853;45.426;9.206;2024-03-02T13:30:25;16.50;67.00
32394;DHT22;18853;45.426;9.206;2024-03-02T13:32:51;16.50;66.90
32394;DHT22;18853;45.426;9.206;2024-03-02T13:35:18;16.60;66.80
32394;DHT22;18853;45.426;9.206;2024-03-02T13:37:44;16.70;66.50
32394;DHT22;18853;45.426;9.206;2024-03-02T13:40:09;16.70;66.10
32394;DHT22;18853;45.426;9.206;2024-03-02T13:42:39;16.70;65.70
32394;DHT22;18853;45.426;9.206;2024-03-02T13:45:06;16.80;65.70
32394;DHT22;18853;45.426;9.206;2024-03-02T13:47:31;16.80;65.40
32394;DHT22;18853;45.426;9.206;2024-03-02T13:49:57;16.80;65.70
32394;DHT22;18853;45.426;9.206;2024-03-02T13:52:23;16.80;65.50
32394;DHT22;18853;45.426;9.206;2024-03-02T13:54:51;16.80;65.10
32394;DHT22;18853;45.426;9.206;2024-03-02T13:57:17;16.80;65.20
32394;DHT22;18853;45.426;9.206;2024-03-02T13:59:45;16.80;65.60
32394;DHT22;18853;45.426;9.206;2024-03-02T14:02:11;16.80;66.10
32394;DHT22;18853;45.426;9.206;2024-03-02T14:04:38;16.90;65.80
32394;DHT22;18853;45.426;9.206;2024-03-02T14:07:04;17.00;65.70
32394;DHT22;18853;45.426;9.206;2024-03-02T14:09:33;17.00;65.40
32394;DHT22;18853;45.426;9.206;2024-03-02T14:11:59;17.00;65.20
32394;DHT22;18853;45.426;9.206;2024-03-02T14:14:28;17.00;65.10
32394;DHT22;18853;45.426;9.206;2024-03-02T14:16:56;17.10;65.20
32394;DHT22;18853;45.426;9.206;2024-03-02T14:19:26;17.10;65.40
32394;DHT22;18853;45.426;9.206;2024-03-02T14:21:51;17.00;64.70
32394;DHT22;18853;45.426;9.206;2024-03-02T14:24:17;17.10;64.80
32394;DHT22;18853;45.426;9.206;2024-03-02T14:26:42;17.10;64.80
32394;DHT22;18853;45.426;9.206;2024-03-02T14:29:08;17.20;66.50
32394;DHT22;18853;45.426;9.206;2024-03-02T14:31:33;17.10;65.30
32394;DHT22;18853;45.426;9.206;2024-03-02T14:33:59;17.10;65.50
32394;DHT22;18853;45.426;9.206;2024-03-02T14:36:26;17.10;65.40
32394;DHT22;18853;45.426;9.206;2024-03-02T14:38:53;17.10;65.40
32394;DHT22;18853;45.426;9.206;2024-03-02T14:41:18;17.00;65.90
32394;DHT22;18853;45.426;9.206;2024-03-02T14:43:44;17.10;65.80
32394;DHT22;18853;45.426;9.206;2024-03-02T14:46:10;17.10;65.60
32394;DHT22;18853;45.426;9.206;2024-03-02T14:48:39;17.10;65.50
32394;DHT22;18853;45.426;9.206;2024-03-02T14:51:05;17.10;65.10
32394;DHT22;18853;45.426;9.206;2024-03-02T14:53:30;17.10;65.10
32394;DHT22;18853;45.426;9.206;2024-03-02T14:55:56;17.10;65.10
32394;DHT22;18853;45.426;9.206;2024-03-02T14:58:21;17.20;66.20
32394;DHT22;18853;45.426;9.206;2024-03-02T15:00:47;17.20;65.60
32394;DHT22;18853;45.426;9.206;2024-03-02T15:03:13;17.10;65.30
32394;DHT22;18853;45.426;9.206;2024-03-02T15:05:38;17.10;65.30
32394;DHT22;18853;45.426;9.206;2024-03-02T15:08:06;17.10;65.30
32394;DHT22;18853;45.426;9.206;2024-03-02T15:10:31;17.10;65.30
32394;DHT22;18853;45.426;9.206;2024-03-02T15:12:58;17.10;65.30
32394;DHT22;18853;45.426;9.206;2024-03-02T15:15:23;17.10;65.40
32394;DHT22;18853;45.426;9.206;2024-03-02T15:17:49;17.10;65.20
32394;DHT22;18853;45.426;9.206;2024-03-02T15:20:16;17.10;65.30
32394;DHT22;18853;45.426;9.206;2024-03-02T15:22:41;17.00;65.10
32394;DHT22;18853;45.426;9.206;2024-03-02T15:25:07;17.00;65.60
32394;DHT22;18853;45.426;9.206;2024-03-02T15:27:32;17.00;65.60
32394;DHT22;18853;45.426;9.206;2024-03-02T15:29:58;17.00;66.00
32394;DHT22;18853;45.426;9.206;2024-03-02T15:32:24;17.00;65.60
32394;DHT22;18853;45.426;9.206;2024-03-02T15:34:52;17.00;65.90
32394;DHT22;18853;45.426;9.206;2024-03-02T15:37:18;16.90;65.90
32394;DHT22;18853;45.426;9.206;2024-03-02T15:39:43;16.90;66.10